Time;durP1;ratioP1;P1;durP2;ratioP2;P2;SDS_P1;SDS_P2;PMS_P1;PMS_P2;Temp;Humidity;BMP_temperature;BMP_pressure;BME280_temperature;BME280_humidity;BME280_pressure;Samples;Min_cycle;Max_cycle;Signal;HPM_P1;HPM_P2
2023/07/16 00:02:14;;;;;;;3.70;3.30;;;21.90;55.20;;;;;;5156822;27;20157;-85
2023/07/16 00:04:40;;;;;;;3.20;2.90;;;21.90;55.30;;;;;;5138265;27;20158;-83
2023/07/16 00:07:06;;;;;;;3.53;3.22;;;21.90;55.30;;;;;;5156747;27;20640;-83
2023/07/16 00:09:32;;;;;;;3.67;3.30;;;21.90;55.30;;;;;;5156623;27;20155;-81
2023/07/16 00:11:58;;;;;;;3.83;3.42;;;22.00;55.30;;;;;;5138216;27;20147;-86
2023/07/16 00:14:24;;;;;;;3.67;3.38;;;21.80;55.30;;;;;;5156517;27;20147;-85
2023/07/16 00:16:50;;;;;;;3.58;3.28;;;21.90;55.30;;;;;;5156600;27;20178;-83
2023/07/16 00:19:16;;;;;;;3.67;3.28;;;21.90;55.30;;;;;;5156701;27;20158;-86
2023/07/16 00:21:42;;;;;;;3.53;3.20;;;22.00;55.30;;;;;;5120714;27;20648;-85
2023/07/16 00:24:08;;;;;;;3.40;3.10;;;21.90;55.30;;;;;;5120746;27;20163;-87
2023/07/16 00:26:34;;;;;;;3.60;3.30;;;21.90;55.30;;;;;;5137893;27;20153;-85
2023/07/16 00:29:00;;;;;;;3.88;3.47;;;21.90;55.30;;;;;;5138142;27;20167;-85
2023/07/16 00:31:25;;;;;;;3.53;3.10;;;21.90;55.30;;;;;;5156572;27;20269;-84
2023/07/16 00:33:51;;;;;;;3.47;3.17;;;21.90;55.30;;;;;;5137732;27;20166;-82
2023/07/16 00:36:17;;;;;;;3.60;3.30;;;21.90;55.30;;;;;;5137699;27;20147;-83
2023/07/16 00:38:45;;;;;;;3.40;3.10;;;21.90;55.30;;;;;;5137668;27;20150;-84
2023/07/16 00:41:12;;;;;;;3.47;3.17;;;21.80;55.40;;;;;;5156313;27;20170;-85
2023/07/16 00:43:38;;;;;;;3.85;3.45;;;21.90;55.40;;;;;;5137922;27;20594;-85
2023/07/16 00:46:04;;;;;;;4.07;3.42;;;21.90;55.40;;;;;;5137341;27;20211;-85
2023/07/16 00:48:30;;;;;;;3.20;2.90;;;21.80;55.40;;;;;;5156014;27;20151;-84
2023/07/16 00:50:56;;;;;;;3.60;3.30;;;21.80;55.40;;;;;;5137299;27;20712;-85
2023/07/16 00:53:22;;;;;;;3.60;3.30;;;21.80;55.40;;;;;;5137296;27;20191;-83
2023/07/16 00:55:48;;;;;;;3.65;3.15;;;21.90;55.50;;;;;;5137677;27;20147;-83
2023/07/16 00:58:14;;;;;;;3.50;3.20;;;21.80;55.50;;;;;;5119951;27;20170;-85
2023/07/16 01:00:41;;;;;;;3.53;3.20;;;21.80;55.50;;;;;;5136768;27;20146;-82
2023/07/16 01:03:09;;;;;;;3.33;3.03;;;21.80;56.20;;;;;;5137413;27;20154;-83
2023/07/16 01:05:56;;;;;;;3.30;3.00;;;21.80;55.50;;;;;;5155633;27;20185;-87
2023/07/16 01:08:35;;;;;;;4.53;3.83;;;21.80;55.50;;;;;;5122623;27;20162;-85
2023/07/16 01:11:02;;;;;;;3.20;2.90;;;21.90;55.60;;;;;;5137350;27;20717;-85
2023/07/16 01:13:28;;;;;;;3.75;3.35;;;21.80;55.60;;;;;;5137241;27;20151;-81
2023/07/16 01:15:54;;;;;;;3.53;3.15;;;21.90;55.70;;;;;;5119626;27;20530;-85
2023/07/16 01:18:20;;;;;;;3.47;3.17;;;21.80;55.60;;;;;;5137231;27;20159;-84
2023/07/16 01:20:46;;;;;;;3.72;3.33;;;21.90;55.60;;;;;;5136888;27;20216;-84
2023/07/16 01:23:26;;;;;;;3.38;3.08;;;21.80;55.60;;;;;;5136786;27;20147;-83
2023/07/16 01:26:19;;;;;;;3.50;2.90;;;21.80;55.60;;;;;;5137132;27;20158;-87
2023/07/16 01:29:21;;;;;;;3.53;3.22;;;21.80;55.60;;;;;;5106464;27;20166;-82
2023/07/16 01:31:47;;;;;;;3.75;3.30;;;21.80;55.70;;;;;;5155137;27;20209;-84
2023/07/16 01:34:13;;;;;;;3.55;3.25;;;21.80;55.60;;;;;;5137040;27;20216;-88
2023/07/16 01:36:39;;;;;;;3.70;3.25;;;21.80;55.50;;;;;;5119466;27;20170;-85
2023/07/16 01:39:06;;;;;;;3.60;2.95;;;21.90;55.70;;;;;;5119782;27;20558;-86
2023/07/16 01:41:31;;;;;;;4.00;3.60;;;21.80;55.60;;;;;;5119509;27;20166;-82
2023/07/16 01:43:57;;;;;;;3.50;3.20;;;21.80;55.60;;;;;;5136590;27;20605;-83
2023/07/16 01:46:23;;;;;;;3.65;3.15;;;21.80;55.60;;;;;;5154930;27;20146;-83
2023/07/16 01:48:49;;;;;;;3.47;3.17;;;21.80;55.70;;;;;;5136352;27;20171;-84
2023/07/16 01:51:15;;;;;;;3.50;3.20;;;21.80;55.70;;;;;;5136346;27;20300;-85
2023/07/16 01:53:41;;;;;;;4.03;3.58;;;21.80;55.60;;;;;;5136448;27;20235;-84
2023/07/16 01:56:07;;;;;;;3.30;3.00;;;21.80;55.70;;;;;;5155071;27;20173;-81
2023/07/16 01:58:33;;;;;;;3.63;3.30;;;21.80;55.70;;;;;;5119213;27;20174;-86
2023/07/16 02:00:59;;;;;;;3.40;3.10;;;21.90;55.80;;;;;;5154798;27;20556;-85
2023/07/16 02:03:25;;;;;;;3.28;2.97;;;21.80;55.70;;;;;;5119484;27;20162;-82
2023/07/16 02:05:51;;;;;;;4.03;2.97;;;21.80;55.70;;;;;;5154755;27;20150;-82
2023/07/16 02:08:18;;;;;;;3.20;2.90;;;21.80;55.70;;;;;;5119221;27;20504;-83
2023/07/16 02:10:44;;;;;;;3.42;3.13;;;21.80;55.70;;;;;;5154790;27;20186;-85
2023/07/16 02:13:10;;;;;;;3.55;3.25;;;21.80;55.70;;;;;;5139849;27;20179;-83
2023/07/16 02:15:36;;;;;;;3.58;3.20;;;21.80;55.70;;;;;;5158874;27;20199;-83
2023/07/16 02:18:02;;;;;;;3.70;3.30;;;21.80;55.70;;;;;;5159461;27;20155;-87
2023/07/16 02:20:29;;;;;;;3.28;2.97;;;21.80;55.70;;;;;;5140442;27;20147;-82
2023/07/16 02:22:54;;;;;;;3.40;3.10;;;21.70;55.70;;;;;;5140347;27;20203;-83
2023/07/16 02:25:20;;;;;;;3.30;3.00;;;21.70;55.80;;;;;;5122945;27;20167;-83
2023/07/16 02:27:46;;;;;;;3.30;3.00;;;21.80;55.80;;;;;;5140230;27;20226;-85
2023/07/16 02:30:14;;;;;;;3.35;3.05;;;21.80;55.80;;;;;;5122909;27;20217;-82
2023/07/16 02:32:40;;;;;;;4.00;3.60;;;21.80;55.90;;;;;;5140087;27;20641;-88
2023/07/16 02:35:07;;;;;;;4.05;3.60;;;21.80;56.10;;;;;;5158581;27;20178;-83
2023/07/16 02:37:33;;;;;;;3.90;3.50;;;21.70;56.00;;;;;;5158604;27;20159;-86
2023/07/16 02:39:59;;;;;;;3.70;3.35;;;21.70;55.80;;;;;;5158494;27;20589;-85
2023/07/16 02:42:25;;;;;;;3.70;3.20;;;21.80;55.90;;;;;;5122808;27;20159;-83
2023/07/16 02:44:51;;;;;;;3.90;3.50;;;21.80;55.90;;;;;;5122644;27;20497;-87
2023/07/16 02:47:17;;;;;;;3.40;3.10;;;21.80;55.80;;;;;;5158259;27;20139;-82
2023/07/16 02:49:42;;;;;;;3.58;2.90;;;21.80;55.80;;;;;;5139550;27;20279;-83
2023/07/16 02:52:08;;;;;;;3.20;2.90;;;21.80;55.90;;;;;;5122726;27;20159;-83
2023/07/16 02:54:35;;;;;;;3.97;3.58;;;21.80;55.90;;;;;;5158106;27;20151;-82
2023/07/16 02:57:01;;;;;;;3.72;3.17;;;21.80;55.90;;;;;;5122533;27;20171;-85
2023/07/16 02:59:28;;;;;;;3.42;3.08;;;21.70;55.80;;;;;;5139660;27;20639;-83
2023/07/16 03:01:54;;;;;;;3.78;3.42;;;21.80;56.00;;;;;;5158084;27;20162;-83
2023/07/16 03:04:20;;;;;;;4.30;3.20;;;21.80;55.90;;;;;;5139741;27;20161;-83
2023/07/16 03:06:45;;;;;;;3.97;3.58;;;21.80;55.90;;;;;;5157982;27;20151;-83
2023/07/16 03:09:12;;;;;;;3.63;3.17;;;21.80;55.90;;;;;;5158136;27;20636;-84
2023/07/16 03:11:37;;;;;;;4.05;3.50;;;21.80;55.90;;;;;;5139492;27;20567;-84
2023/07/16 03:14:03;;;;;;;3.58;3.28;;;21.80;56.00;;;;;;5157769;27;20160;-83
2023/07/16 03:16:29;;;;;;;3.30;3.00;;;21.70;55.90;;;;;;5157761;27;20242;-82
2023/07/16 03:18:55;;;;;;;3.47;3.17;;;21.80;56.00;;;;;;5139161;27;20158;-87
2023/07/16 03:21:21;;;;;;;3.45;3.13;;;21.80;56.00;;;;;;5139311;27;20673;-84
2023/07/16 03:23:47;;;;;;;3.90;3.50;;;21.70;55.90;;;;;;5157086;27;20151;-86
2023/07/16 03:26:13;;;;;;;3.50;3.10;;;21.80;56.00;;;;;;5157458;27;20182;-83
2023/07/16 03:28:39;;;;;;;3.55;3.22;;;21.80;56.00;;;;;;5157504;27;20158;-83
2023/07/16 03:31:09;;;;;;;3.95;3.42;;;21.80;56.00;;;;;;5138841;27;20175;-83
2023/07/16 03:33:35;;;;;;;3.60;3.30;;;21.70;56.00;;;;;;5070451;27;20187;-85
2023/07/16 03:36:01;;;;;;;3.60;3.30;;;21.70;56.00;;;;;;5139107;27;20169;-83
2023/07/16 03:38:27;;;;;;;3.53;3.22;;;21.70;56.10;;;;;;5139122;27;20186;-82
2023/07/16 03:40:52;;;;;;;3.75;3.35;;;21.80;56.10;;;;;;5138863;27;20159;-82
2023/07/16 03:43:18;;;;;;;3.47;3.17;;;21.70;56.10;;;;;;5121537;27;20166;-88
2023/07/16 03:45:45;;;;;;;3.25;2.95;;;21.70;56.10;;;;;;5138676;27;20158;-84
2023/07/16 03:48:10;;;;;;;3.80;3.30;;;21.70;56.10;;;;;;5138770;27;20224;-85
2023/07/16 03:50:36;;;;;;;3.72;3.40;;;21.80;56.10;;;;;;5121197;27;20233;-83
2023/07/16 03:53:03;;;;;;;3.90;3.47;;;21.70;56.10;;;;;;5138877;27;20158;-86
2023/07/16 03:55:29;;;;;;;3.42;3.10;;;21.70;56.10;;;;;;5157449;27;20204;-86
2023/07/16 03:57:55;;;;;;;3.50;3.20;;;21.70;56.10;;;;;;5121739;27;20197;-82
2023/07/16 04:00:21;;;;;;;4.00;3.55;;;21.70;56.10;;;;;;5138527;27;20198;-85
2023/07/16 04:02:47;;;;;;;3.60;3.30;;;21.70;56.80;;;;;;5121053;27;20175;-85
2023/07/16 04:05:13;;;;;;;3.95;3.55;;;21.80;56.10;;;;;;5156791;27;20159;-86
2023/07/16 04:07:39;;;;;;;3.30;3.00;;;21.70;56.10;;;;;;5156979;27;20200;-85
2023/07/16 04:10:05;;;;;;;3.30;3.00;;;21.70;56.20;;;;;;5156655;27;20200;-83
2023/07/16 04:12:31;;;;;;;3.58;3.28;;;21.70;56.20;;;;;;5138335;27;20159;-82
2023/07/16 04:14:58;;;;;;;3.80;3.40;;;21.70;56.20;;;;;;5138254;27;20159;-85
2023/07/16 04:17:24;;;;;;;3.58;3.20;;;21.70;56.20;;;;;;5156559;27;20159;-84
2023/07/16 04:19:50;;;;;;;3.75;3.30;;;21.60;56.20;;;;;;5156620;27;20166;-84
2023/07/16 04:22:16;;;;;;;3.95;3.40;;;21.70;56.30;;;;;;5156506;27;20154;-84
2023/07/16 04:24:42;;;;;;;3.53;3.17;;;21.70;56.20;;;;;;5138072;27;20151;-82
2023/07/16 04:27:08;;;;;;;3.75;3.28;;;21.70;56.20;;;;;;5138228;27;20520;-83
2023/07/16 04:29:34;;;;;;;3.47;3.05;;;21.70;56.20;;;;;;5120508;27;20158;-86
2023/07/16 04:32:00;;;;;;;3.60;3.20;;;21.70;56.30;;;;;;5156621;27;20605;-84
2023/07/16 04:34:26;;;;;;;3.50;3.20;;;21.60;56.30;;;;;;5155418;27;20161;-84
2023/07/16 04:36:52;;;;;;;3.40;3.10;;;21.60;56.30;;;;;;5137685;27;20158;-85
2023/07/16 04:39:18;;;;;;;3.65;3.28;;;21.60;56.30;;;;;;5120591;27;20635;-84
2023/07/16 04:41:44;;;;;;;3.90;3.40;;;21.70;56.30;;;;;;5137650;27;20154;-84
2023/07/16 04:44:10;;;;;;;3.80;3.40;;;21.60;56.40;;;;;;5137419;27;20158;-86
2023/07/16 04:46:36;;;;;;;4.15;3.75;;;21.60;56.30;;;;;;5156550;27;20151;-86
2023/07/16 04:49:02;;;;;;;3.70;3.30;;;21.60;56.30;;;;;;5137810;27;20150;-88
2023/07/16 04:51:28;;;;;;;3.63;3.22;;;21.70;56.40;;;;;;5133897;27;20226;-83
2023/07/16 04:53:54;;;;;;;3.80;3.38;;;21.60;56.40;;;;;;5133936;27;20147;-88
2023/07/16 04:56:20;;;;;;;3.33;3.03;;;21.70;56.40;;;;;;5133986;27;20258;-84
2023/07/16 04:58:46;;;;;;;4.32;3.45;;;21.60;56.40;;;;;;5133948;27;20205;-82
2023/07/16 05:01:12;;;;;;;3.90;3.50;;;21.60;56.40;;;;;;5116483;27;20201;-85
2023/07/16 05:03:38;;;;;;;3.70;3.22;;;21.60;56.50;;;;;;5116841;27;20160;-86
2023/07/16 05:06:04;;;;;;;3.97;3.55;;;21.60;56.50;;;;;;5116793;27;20211;-84
2023/07/16 05:08:30;;;;;;;3.42;3.13;;;21.70;56.50;;;;;;5133762;27;20147;-86
2023/07/16 05:10:56;;;;;;;4.63;3.60;;;21.60;56.40;;;;;;5117185;27;20195;-82
2023/07/16 05:13:22;;;;;;;3.47;3.17;;;21.60;56.50;;;;;;5133893;27;20158;-88
2023/07/16 05:15:52;;;;;;;3.95;3.55;;;21.70;56.50;;;;;;5133571;27;20254;-86
2023/07/16 05:18:18;;;;;;;3.72;3.33;;;21.60;56.40;;;;;;5116464;27;20190;-87
2023/07/16 05:20:48;;;;;;;3.75;3.33;;;21.60;56.50;;;;;;5134626;27;20170;-85
2023/07/16 05:23:15;;;;;;;3.95;3.55;;;21.60;56.50;;;;;;5133304;27;20652;-86
2023/07/16 05:25:48;;;;;;;3.60;3.30;;;21.60;56.60;;;;;;5133748;27;20163;-85
2023/07/16 05:28:16;;;;;;;3.42;3.13;;;21.60;56.60;;;;;;5133329;27;20162;-85
2023/07/16 05:30:42;;;;;;;3.45;3.15;;;21.60;56.60;;;;;;5116848;27;20207;-89
2023/07/16 05:33:09;;;;;;;3.80;3.40;;;21.60;56.60;;;;;;5116707;28;20667;-88
2023/07/16 05:35:35;;;;;;;3.78;3.40;;;21.60;56.60;;;;;;5134633;27;20148;-85
2023/07/16 05:38:01;;;;;;;4.13;3.67;;;21.60;56.60;;;;;;5133272;27;20537;-84
2023/07/16 05:40:27;;;;;;;3.88;3.47;;;21.50;56.60;;;;;;5134479;27;20159;-86
2023/07/16 05:42:53;;;;;;;3.72;3.08;;;21.60;56.60;;;;;;5133274;27;20174;-84
2023/07/16 05:45:19;;;;;;;3.42;3.13;;;21.60;56.70;;;;;;5133323;27;20602;-85
2023/07/16 05:47:49;;;;;;;3.40;3.10;;;21.60;56.60;;;;;;5133018;27;20156;-84
2023/07/16 05:50:15;;;;;;;4.15;3.63;;;21.60;56.70;;;;;;5114973;28;20275;-87
2023/07/16 05:52:41;;;;;;;3.88;3.47;;;21.50;56.60;;;;;;5134249;28;20163;-86
2023/07/16 05:55:07;;;;;;;3.45;3.10;;;21.60;56.60;;;;;;5134200;28;20630;-87
2023/07/16 05:57:33;;;;;;;3.90;3.50;;;21.60;56.60;;;;;;5132981;28;20259;-86
2023/07/16 05:59:59;;;;;;;3.88;3.28;;;21.60;56.60;;;;;;5132954;28;20167;-87
2023/07/16 06:02:24;;;;;;;3.78;3.40;;;21.60;56.60;;;;;;5132851;28;20163;-86
2023/07/16 06:04:50;;;;;;;3.30;3.00;;;21.60;56.60;;;;;;5134511;28;20648;-86
2023/07/16 06:07:17;;;;;;;3.33;3.03;;;21.60;56.60;;;;;;5132910;28;20618;-84
2023/07/16 06:09:43;;;;;;;3.83;3.42;;;21.60;56.60;;;;;;5133990;28;20155;-83
2023/07/16 06:12:09;;;;;;;3.90;3.50;;;21.60;56.60;;;;;;5132881;28;20156;-84
2023/07/16 06:14:35;;;;;;;3.35;3.05;;;21.60;56.60;;;;;;5132773;28;20208;-84
2023/07/16 06:17:05;;;;;;;4.10;3.53;;;21.70;56.60;;;;;;5134357;28;20151;-84
2023/07/16 06:19:31;;;;;;;3.35;3.05;;;21.70;56.60;;;;;;5098240;28;20235;-86
2023/07/16 06:21:57;;;;;;;3.80;3.40;;;21.70;56.70;;;;;;5132961;28;20234;-86
2023/07/16 06:24:27;;;;;;;3.92;3.50;;;21.60;56.70;;;;;;5134111;28;20165;-86
2023/07/16 06:26:53;;;;;;;3.30;3.00;;;21.60;56.90;;;;;;5081333;28;20667;-85
2023/07/16 06:29:19;;;;;;;3.60;3.30;;;21.60;56.80;;;;;;5132780;28;20155;-85
2023/07/16 06:31:56;;;;;;;3.65;3.25;;;21.60;56.90;;;;;;5133798;28;20191;-85
2023/07/16 06:34:22;;;;;;;3.50;3.20;;;21.70;56.90;;;;;;5115626;28;20544;-84
2023/07/16 06:36:48;;;;;;;3.50;3.17;;;21.70;57.00;;;;;;5115470;28;20254;-85
2023/07/16 06:39:14;;;;;;;3.47;3.17;;;21.60;56.90;;;;;;5133921;28;20582;-85
2023/07/16 06:41:40;;;;;;;3.90;3.33;;;21.70;57.00;;;;;;5132623;28;20586;-84
2023/07/16 06:44:06;;;;;;;3.20;2.90;;;21.70;58.40;;;;;;5134335;28;20598;-87
2023/07/16 06:46:32;;;;;;;3.65;3.20;;;21.70;58.00;;;;;;5115716;28;20213;-86
2023/07/16 06:48:58;;;;;;;3.40;3.10;;;21.80;60.10;;;;;;5133390;28;20301;-89
2023/07/16 06:51:24;;;;;;;3.30;3.00;;;21.70;59.20;;;;;;5151988;27;20225;-82
2023/07/16 06:53:50;;;;;;;3.20;2.90;;;21.90;59.60;;;;;;5136161;27;20190;-85
2023/07/16 06:56:16;;;;;;;3.45;3.15;;;21.90;60.50;;;;;;5118712;27;20289;-83
2023/07/16 06:58:42;;;;;;;3.28;2.97;;;21.90;60.50;;;;;;5121593;27;20613;-87
2023/07/16 07:01:08;;;;;;;3.60;3.30;;;21.90;60.00;;;;;;5122666;27;20205;-85
2023/07/16 07:03:34;;;;;;;3.50;3.20;;;21.90;60.30;;;;;;5139522;27;20155;-85
2023/07/16 07:06:04;;;;;;;3.42;3.13;;;21.90;61.40;;;;;;5139556;27;20617;-84
2023/07/16 07:08:34;;;;;;;3.65;3.28;;;21.80;61.10;;;;;;5122447;27;20637;-86
2023/07/16 07:11:00;;;;;;;3.60;3.25;;;21.90;61.80;;;;;;5087703;27;20233;-89
2023/07/16 07:13:26;;;;;;;3.72;3.28;;;21.90;61.30;;;;;;5139391;27;20518;-84
2023/07/16 07:15:52;;;;;;;3.20;2.90;;;21.90;61.90;;;;;;5122039;27;20299;-87
2023/07/16 07:18:18;;;;;;;3.40;3.10;;;21.90;62.00;;;;;;5139289;27;20254;-86
2023/07/16 07:20:44;;;;;;;3.53;3.22;;;21.90;61.90;;;;;;5139763;27;20157;-83
2023/07/16 07:23:15;;;;;;;3.42;3.13;;;21.90;61.50;;;;;;5139168;27;20226;-87
2023/07/16 07:25:41;;;;;;;3.47;3.17;;;22.00;62.00;;;;;;5071312;27;20235;-88
2023/07/16 07:28:07;;;;;;;3.67;3.38;;;22.00;61.70;;;;;;5139110;27;20510;-83
2023/07/16 07:30:33;;;;;;;4.05;3.10;;;22.00;62.00;;;;;;5139024;27;20274;-86
2023/07/16 07:32:59;;;;;;;3.28;2.97;;;21.90;62.40;;;;;;5139016;27;20155;-85
2023/07/16 07:35:29;;;;;;;3.72;3.35;;;21.90;62.90;;;;;;5121697;27;20258;-86
2023/07/16 07:37:55;;;;;;;3.65;3.35;;;21.90;62.40;;;;;;5087338;27;20633;-85
2023/07/16 07:40:21;;;;;;;3.38;3.08;;;21.90;63.20;;;;;;5138895;27;20157;-90
2023/07/16 07:42:47;;;;;;;3.63;3.33;;;21.90;62.90;;;;;;5139042;27;20203;-85
2023/07/16 07:45:13;;;;;;;3.47;3.17;;;21.90;63.40;;;;;;5157392;27;20162;-84
2023/07/16 07:47:39;;;;;;;3.55;3.25;;;21.80;63.90;;;;;;5157418;27;20157;-83
2023/07/16 07:50:05;;;;;;;3.67;3.38;;;21.90;63.80;;;;;;5134931;27;20226;-86
2023/07/16 07:52:35;;;;;;;3.80;3.50;;;21.80;64.10;;;;;;5118891;27;20174;-86
2023/07/16 07:55:01;;;;;;;3.60;3.25;;;21.80;64.30;;;;;;5100523;27;20191;-87
2023/07/16 07:57:31;;;;;;;3.80;3.45;;;21.80;64.60;;;;;;5136443;27;20281;-85
2023/07/16 08:00:01;;;;;;;3.42;3.13;;;21.80;64.60;;;;;;5117458;27;20207;-84
2023/07/16 08:02:27;;;;;;;3.60;3.30;;;21.80;64.90;;;;;;5083217;27;20179;-85
2023/07/16 08:04:53;;;;;;;3.83;3.42;;;21.80;65.20;;;;;;5135200;27;20156;-88
2023/07/16 08:07:19;;;;;;;4.30;3.55;;;21.80;65.20;;;;;;5118254;27;20253;-88
2023/07/16 08:09:50;;;;;;;4.45;3.47;;;21.80;65.40;;;;;;5117564;27;20187;-88
2023/07/16 08:12:16;;;;;;;3.58;3.20;;;21.80;65.60;;;;;;5083448;27;20179;-87
2023/07/16 08:14:42;;;;;;;3.58;3.28;;;21.90;65.50;;;;;;5135237;27;20231;-86
2023/07/16 08:17:08;;;;;;;3.65;3.35;;;21.90;65.40;;;;;;5135864;27;20148;-85
2023/07/16 08:19:38;;;;;;;3.80;3.50;;;21.90;65.20;;;;;;5134481;27;20160;-88
2023/07/16 08:22:04;;;;;;;4.10;3.70;;;21.80;65.30;;;;;;5099948;27;20210;-86
2023/07/16 08:24:30;;;;;;;3.70;3.40;;;21.80;66.00;;;;;;5134803;27;20234;-87
2023/07/16 08:26:56;;;;;;;3.47;3.17;;;21.80;66.40;;;;;;5134489;27;20554;-85
2023/07/16 08:29:22;;;;;;;3.97;3.55;;;21.80;66.80;;;;;;5135614;27;20246;-88
2023/07/16 08:31:48;;;;;;;3.28;2.97;;;21.80;66.90;;;;;;5117732;27;20202;-85
2023/07/16 08:34:14;;;;;;;3.60;3.30;;;21.80;67.60;;;;;;5136869;27;20152;-89
2023/07/16 08:36:40;;;;;;;3.63;3.33;;;21.90;67.20;;;;;;5136496;27;20152;-86
2023/07/16 08:39:07;;;;;;;3.92;3.55;;;21.80;67.40;;;;;;5137640;27;20158;-85
2023/07/16 08:41:33;;;;;;;3.92;3.53;;;21.80;67.30;;;;;;5136643;27;20151;-87
2023/07/16 08:44:03;;;;;;;3.80;3.50;;;21.80;67.40;;;;;;5119503;27;20521;-87
2023/07/16 08:46:33;;;;;;;4.13;3.55;;;21.80;67.80;;;;;;5101882;27;20184;-85
2023/07/16 08:48:59;;;;;;;4.15;3.75;;;21.80;67.80;;;;;;5101755;27;20179;-83
2023/07/16 08:51:28;;;;;;;4.15;3.75;;;21.80;68.00;;;;;;5155723;27;20222;-85
2023/07/16 08:53:54;;;;;;;4.05;3.65;;;21.80;68.10;;;;;;5088672;27;20648;-86
2023/07/16 08:56:20;;;;;;;3.88;3.47;;;21.80;68.20;;;;;;5139459;27;20192;-88
2023/07/16 08:58:46;;;;;;;4.10;3.72;;;21.80;68.30;;;;;;5139662;27;20505;-84
2023/07/16 09:01:18;;;;;;;4.25;3.85;;;21.80;68.60;;;;;;5158361;27;20190;-84
2023/07/16 09:03:44;;;;;;;3.88;3.50;;;21.80;69.10;;;;;;5088714;27;20178;-86
2023/07/16 09:06:10;;;;;;;4.00;3.60;;;21.80;69.20;;;;;;5139867;27;20524;-86
2023/07/16 09:08:36;;;;;;;4.20;3.80;;;21.80;69.50;;;;;;5157821;27;20157;-84
2023/07/16 09:11:01;;;;;;;4.68;4.18;;;21.80;69.70;;;;;;5139209;27;20233;-83
2023/07/16 09:13:32;;;;;;;4.20;3.60;;;21.80;70.10;;;;;;5139285;27;20151;-84
2023/07/16 09:16:02;;;;;;;5.05;4.25;;;21.80;70.90;;;;;;5088060;27;20253;-86
2023/07/16 09:18:28;;;;;;;4.35;3.95;;;21.70;71.20;;;;;;5104524;27;20214;-83
2023/07/16 09:20:56;;;;;;;4.07;3.67;;;21.70;71.40;;;;;;5122161;27;20737;-87
2023/07/16 09:23:25;;;;;;;4.70;4.20;;;21.70;72.00;;;;;;5157902;27;20158;-84
2023/07/16 09:25:52;;;;;;;4.80;4.40;;;21.60;72.30;;;;;;5139622;27;20611;-85
2023/07/16 09:28:19;;;;;;;4.63;4.00;;;21.60;73.00;;;;;;5139478;27;20624;-84
2023/07/16 09:30:45;;;;;;;4.40;4.00;;;21.60;73.50;;;;;;5122176;27;20213;-83
2023/07/16 09:33:14;;;;;;;4.60;4.20;;;21.60;73.80;;;;;;5139364;27;20557;-80
2023/07/16 09:35:40;;;;;;;4.30;3.90;;;21.60;74.10;;;;;;5138933;27;20147;-83
2023/07/16 09:38:07;;;;;;;4.53;4.13;;;21.60;74.70;;;;;;5139025;27;20151;-87
2023/07/16 09:40:33;;;;;;;5.13;4.63;;;21.60;75.20;;;;;;5157481;27;20245;-87
2023/07/16 09:42:59;;;;;;;4.35;3.95;;;21.50;75.30;;;;;;5138802;27;20616;-87
2023/07/16 09:45:29;;;;;;;4.65;4.25;;;21.50;75.60;;;;;;5157185;27;20234;-83
2023/07/16 09:47:55;;;;;;;4.20;3.80;;;21.50;76.00;;;;;;5104404;27;20629;-84
2023/07/16 09:50:23;;;;;;;4.75;4.28;;;21.50;77.20;;;;;;5138244;27;20282;-86
2023/07/16 09:52:53;;;;;;;4.70;4.30;;;21.50;76.80;;;;;;5122213;27;20158;-86
2023/07/16 09:55:26;;;;;;;4.55;4.15;;;21.40;77.00;;;;;;5087085;27;20273;-87
2023/07/16 09:57:57;;;;;;;4.88;4.38;;;21.40;77.70;;;;;;5071231;27;20676;-83
2023/07/16 10:00:27;;;;;;;4.55;4.15;;;21.40;77.90;;;;;;5087832;27;20187;-84
2023/07/16 10:02:57;;;;;;;4.95;4.45;;;21.40;78.50;;;;;;5089094;27;20182;-86
2023/07/16 10:05:28;;;;;;;4.40;4.00;;;21.40;78.70;;;;;;5072662;27;20174;-83
2023/07/16 10:07:59;;;;;;;4.50;4.10;;;21.40;79.10;;;;;;5072246;27;20182;-81
2023/07/16 10:10:41;;;;;;;5.13;4.15;;;21.40;79.70;;;;;;5087141;27;20765;-86
2023/07/16 10:13:12;;;;;;;4.45;4.05;;;21.30;80.00;;;;;;5109562;27;20265;-83
2023/07/16 10:15:57;;;;;;;6.68;4.63;;;21.30;80.30;;;;;;5104006;27;20182;-84
2023/07/16 10:18:30;;;;;;;4.38;3.97;;;21.30;80.60;;;;;;5062376;27;20194;-85
2023/07/16 10:21:07;;;;;;;5.00;4.50;;;21.30;80.90;;;;;;5086606;27;20178;-83
2023/07/16 10:23:59;;;;;;;4.70;4.30;;;21.30;81.40;;;;;;5069931;27;20178;-84
2023/07/16 10:26:29;;;;;;;4.57;4.18;;;21.30;82.50;;;;;;5120802;27;20228;-85
2023/07/16 10:28:56;;;;;;;4.38;3.97;;;21.20;81.90;;;;;;5069377;27;20515;-84
2023/07/16 10:31:24;;;;;;;4.40;4.00;;;21.20;82.30;;;;;;5102662;27;20304;-85
2023/07/16 10:34:04;;;;;;;4.70;4.07;;;21.30;82.70;;;;;;5070812;27;20279;-83
2023/07/16 10:36:41;;;;;;;4.47;4.07;;;21.20;82.90;;;;;;5140713;27;20178;-86
2023/07/16 10:39:07;;;;;;;4.05;3.65;;;21.20;83.10;;;;;;5159407;27;20597;-87
2023/07/16 10:41:34;;;;;;;4.32;3.92;;;21.30;83.60;;;;;;5140338;27;20153;-85
2023/07/16 10:44:00;;;;;;;4.85;4.05;;;21.30;83.90;;;;;;5158934;27;20155;-85
2023/07/16 10:46:26;;;;;;;3.97;3.53;;;21.20;84.10;;;;;;5158714;27;20629;-82
2023/07/16 10:48:52;;;;;;;4.72;3.88;;;21.20;84.30;;;;;;5122823;27;20163;-85
2023/07/16 10:51:24;;;;;;;4.05;3.65;;;21.10;84.50;;;;;;5139648;27;20229;-83
2023/07/16 10:53:51;;;;;;;4.18;3.70;;;21.20;84.90;;;;;;5140260;27;20196;-86
2023/07/16 10:56:17;;;;;;;4.13;3.72;;;21.20;85.10;;;;;;5158324;27;20181;-83
2023/07/16 10:58:43;;;;;;;3.78;3.47;;;21.20;85.40;;;;;;5158197;27;20158;-84
2023/07/16 11:01:09;;;;;;;4.20;3.80;;;21.20;85.80;;;;;;5122575;27;20249;-85
2023/07/16 11:03:36;;;;;;;4.10;3.75;;;21.20;86.00;;;;;;5122908;27;20207;-83
2023/07/16 11:06:09;;;;;;;4.00;3.60;;;21.20;86.10;;;;;;5158662;27;20143;-83
2023/07/16 11:08:35;;;;;;;4.35;3.95;;;21.20;86.40;;;;;;5158136;27;20241;-85
2023/07/16 11:11:01;;;;;;;3.85;3.55;;;21.20;86.50;;;;;;5158366;27;20214;-86
2023/07/16 11:13:28;;;;;;;4.05;3.72;;;21.20;86.80;;;;;;5139895;27;20151;-82
2023/07/16 11:15:54;;;;;;;4.05;3.65;;;21.20;86.90;;;;;;5157796;27;20151;-83
2023/07/16 11:18:24;;;;;;;4.35;3.88;;;21.20;87.00;;;;;;5122816;27;20173;-84
2023/07/16 11:20:52;;;;;;;3.85;3.47;;;21.20;87.30;;;;;;5139175;27;20606;-84
2023/07/16 11:23:18;;;;;;;5.10;4.00;;;21.20;87.50;;;;;;5139386;27;20151;-82
2023/07/16 11:25:52;;;;;;;4.05;3.65;;;21.10;87.80;;;;;;5139210;27;20588;-86
2023/07/16 11:28:18;;;;;;;4.03;3.63;;;21.10;88.10;;;;;;5139245;27;20174;-87
2023/07/16 11:30:44;;;;;;;4.10;3.70;;;21.20;88.50;;;;;;5139119;27;20687;-84
2023/07/16 11:33:11;;;;;;;4.13;3.72;;;21.20;88.70;;;;;;5157562;27;20155;-83
2023/07/16 11:35:41;;;;;;;4.22;3.85;;;21.20;89.00;;;;;;5121826;27;20705;-83
2023/07/16 11:38:07;;;;;;;3.95;3.65;;;21.20;89.20;;;;;;5104422;27;20182;-84
2023/07/16 11:40:35;;;;;;;4.57;3.70;;;21.20;89.20;;;;;;5138982;27;20176;-86
2023/07/16 11:43:10;;;;;;;4.38;3.97;;;21.20;89.80;;;;;;5138988;27;20212;-84
2023/07/16 11:45:36;;;;;;;4.03;3.63;;;21.20;90.00;;;;;;5157332;27;20151;-85
2023/07/16 11:48:03;;;;;;;3.75;3.42;;;21.20;90.10;;;;;;5157374;27;20234;-84
2023/07/16 11:50:30;;;;;;;3.85;3.55;;;21.20;90.20;;;;;;5157018;27;20230;-82
2023/07/16 11:53:01;;;;;;;3.78;3.47;;;21.30;90.40;;;;;;5121716;27;20154;-82
2023/07/16 11:55:30;;;;;;;3.78;3.47;;;21.30;90.50;;;;;;5070741;27;20172;-86
2023/07/16 11:58:00;;;;;;;3.78;3.47;;;21.20;90.60;;;;;;5104034;27;20178;-84
2023/07/16 12:00:29;;;;;;;4.35;3.95;;;21.20;90.80;;;;;;5070289;27;20182;-87
2023/07/16 12:02:58;;;;;;;3.90;3.50;;;21.20;91.00;;;;;;5086641;27;20182;-86
2023/07/16 12:05:28;;;;;;;3.67;3.38;;;21.20;91.00;;;;;;5103579;27;20189;-85
2023/07/16 12:07:57;;;;;;;3.80;3.50;;;21.20;91.10;;;;;;5087091;27;20633;-85
2023/07/16 12:10:26;;;;;;;3.88;3.58;;;21.30;91.20;;;;;;5103533;27;20722;-87
2023/07/16 12:12:55;;;;;;;3.83;3.53;;;21.30;91.20;;;;;;5069928;27;20179;-84
2023/07/16 12:15:23;;;;;;;4.10;3.75;;;21.30;91.00;;;;;;5103431;27;20227;-83
2023/07/16 12:17:52;;;;;;;3.63;3.33;;;21.30;90.80;;;;;;5103231;27;20188;-84
2023/07/16 12:20:21;;;;;;;4.00;3.60;;;21.40;90.50;;;;;;5103321;27;20648;-88
2023/07/16 12:22:49;;;;;;;3.95;3.50;;;21.40;90.70;;;;;;5069725;27;20535;-86
2023/07/16 12:25:18;;;;;;;3.65;3.33;;;21.40;90.30;;;;;;5069586;27;20265;-82
2023/07/16 12:27:46;;;;;;;3.75;3.40;;;21.50;90.10;;;;;;5102975;27;20652;-84
2023/07/16 12:30:14;;;;;;;3.63;3.33;;;21.50;90.00;;;;;;5103221;27;20235;-85
2023/07/16 12:32:42;;;;;;;3.22;2.92;;;21.50;89.70;;;;;;5103161;27;20717;-85
2023/07/16 12:35:11;;;;;;;3.47;3.17;;;21.50;89.40;;;;;;5086146;27;20220;-82
2023/07/16 12:37:39;;;;;;;3.50;3.20;;;21.50;89.20;;;;;;5086274;27;20174;-82
2023/07/16 12:40:07;;;;;;;3.97;3.58;;;21.60;88.80;;;;;;5103113;27;20238;-85
2023/07/16 12:42:35;;;;;;;5.30;3.60;;;21.60;88.50;;;;;;5086127;27;20189;-86
2023/07/16 12:45:03;;;;;;;3.58;3.28;;;21.60;88.40;;;;;;5085995;27;20182;-84
2023/07/16 12:47:32;;;;;;;3.70;3.40;;;21.70;88.30;;;;;;5085832;27;20187;-83
2023/07/16 12:49:57;;;;;;;3.75;3.45;;;21.70;88.10;;;;;;5069338;27;20232;-82